Date,TemperatureHighF,TemperatureAvgF,TemperatureLowF,DewpointHighF,DewpointAvgF,DewpointLowF,HumidityHigh,HumidityAvg,HumidityLow,PressureMaxIn,PressureMinIn,WindSpeedMaxMPH,WindSpeedAvgMPH,GustSpeedMaxMPH,PrecipitationSumIn
2013-3-1,74.5,57.1,40.4,48.9,44.2,38.5,97,66,36,30.42,30.22,9,0,9,0.00
2013-3-2,78.5,61.6,43.1,53.2,46.8,35.6,95,63,29,30.27,30.03,18,1,18,0.00
2013-3-3,71.2,62.6,54.6,52.6,48.3,41.6,77,60,37,30.10,29.97,12,2,12,0.00
2013-3-4,71.0,57.7,45.7,50.3,46.4,43.1,92,68,42,30.13,30.00,10,2,10,0.00
2013-3-5,73.2,57.0,43.4,50.8,43.2,34.4,93,64,31,30.05,29.88,17,2,17,0.00
2013-3-6,63.5,54.2,46.6,50.1,45.2,39.4,88,73,51,30.10,29.98,14,2,14,0.00
2013-3-7,61.4,52.5,47.0,49.2,45.3,41.9,93,78,52,29.99,29.82,11,2,11,0.02
2013-3-8,54.4,48.2,44.9,48.7,45.7,43.5,96,91,76,30.06,29.78,16,3,16,0.40
2013-3-9,61.3,50.1,43.8,48.8,45.1,41.6,97,84,58,30.32,30.06,10,1,10,0.00
2013-3-10,66.8,52.9,39.6,49.6,44.1,38.3,96,75,46,30.37,30.24,9,1,9,0.00
2013-3-11,71.4,55.1,38.2,52.0,46.2,36.9,97,75,45,30.27,30.09,9,0,9,0.00
2013-3-12,76.7,60.2,44.5,53.4,48.9,43.1,96,70,37,30.16,30.04,8,1,8,0.00
2013-3-13,82.5,63.4,45.0,57.1,51.8,43.6,100,70,33,30.18,30.02,10,0,10,0.00
2013-3-14,83.3,65.6,48.9,58.8,54.3,47.5,96,70,37,30.11,30.02,13,1,13,0.00
2013-3-15,78.8,64.5,51.8,59.2,53.9,47.9,88,70,42,30.07,29.97,15,2,15,0.00
2013-3-16,78.7,63.1,48.1,57.5,49.8,44.0,94,65,34,30.05,29.94,20,2,20,0.00
2013-3-17,75.2,62.4,50.3,47.8,42.9,36.4,77,51,28,30.09,29.98,20,4,20,0.00
2013-3-18,70.8,59.2,44.1,48.4,43.3,39.3,84,58,35,30.11,30.00,11,1,11,0.00
2013-3-19,77.5,63.3,48.1,52.7,48.3,43.8,89,61,35,30.13,30.01,26,2,26,0.00
2013-3-20,71.8,62.9,55.0,58.2,52.7,49.8,85,70,52,30.11,30.02,16,2,17,0.00
2013-3-21,69.8,59.0,50.6,52.7,47.9,40.0,91,69,40,30.05,29.93,17,6,17,0.00
2013-3-22,68.0,54.8,43.4,45.6,36.4,26.9,75,52,26,30.06,29.96,17,4,17,0.00
2013-3-23,69.7,54.0,38.1,43.1,36.9,30.4,80,54,33,30.14,30.01,10,1,10,0.00
2013-3-24,74.9,58.1,39.6,47.6,41.3,37.1,93,59,29,30.10,29.93,8,1,8,0.00
2013-3-25,75.7,60.1,45.3,50.4,45.8,40.8,87,62,36,29.99,29.86,8,0,8,0.00
2013-3-26,76.0,61.2,46.8,50.5,45.9,39.6,90,61,29,29.97,29.86,12,2,12,0.00
2013-3-27,77.5,63.5,49.8,54.0,49.3,45.3,89,63,35,29.98,29.88,16,2,16,0.00
2013-3-28,71.8,61.6,50.9,56.2,52.7,48.3,92,74,52,30.07,29.98,8,1,8,0.00
2013-3-29,80.8,64.5,49.1,56.9,51.0,46.3,94,66,32,30.10,29.95,8,0,9,0.00
2013-3-30,84.5,68.1,56.3,57.6,51.8,46.1,86,59,31,30.03,29.89,19,1,19,0.05
2013-3-31,74.5,64.1,55.0,60.0,53.4,46.4,97,71,39,30.09,29.95,15,2,16,0.17